Time;durP1;ratioP1;P1;durP2;ratioP2;P2;SDS_P1;SDS_P2;PMS_P1;PMS_P2;Temp;Humidity;BMP_temperature;BMP_pressure;BME280_temperature;BME280_humidity;BME280_pressure;Samples;Min_cycle;Max_cycle;Signal;HPM_P1;HPM_P2
2022/04/20 00:01:46;;;;;;;;;;;22.20;34.20;;;;;;5072739;28;19913;-63
2022/04/20 00:04:11;;;;;;;;;;;22.20;34.10;;;;;;5074810;28;19931;-62
2022/04/20 00:06:37;;;;;;;;;;;22.10;34.20;;;;;;5071476;28;20023;-63
2022/04/20 00:09:02;;;;;;;;;;;22.20;34.40;;;;;;5068102;28;19908;-64
2022/04/20 00:11:28;;;;;;;;;;;22.20;34.20;;;;;;5073298;28;20280;-63
2022/04/20 00:13:53;;;;;;;;;;;22.20;34.20;;;;;;5067867;28;19921;-63
2022/04/20 00:16:19;;;;;;;;;;;22.10;34.20;;;;;;5068343;28;19913;-63
2022/04/20 00:18:44;;;;;;;;;;;22.10;34.30;;;;;;5071335;28;19909;-63
2022/04/20 00:21:09;;;;;;;;;;;22.00;34.40;;;;;;5070097;28;19920;-63
2022/04/20 00:23:35;;;;;;;;;;;22.00;34.50;;;;;;5065166;28;19922;-63
2022/04/20 00:26:00;;;;;;;;;;;22.00;34.50;;;;;;5072243;28;19952;-63
2022/04/20 00:28:26;;;;;;;;;;;22.00;34.60;;;;;;5073405;28;19923;-63
2022/04/20 00:30:51;;;;;;;;;;;22.00;34.50;;;;;;5073542;28;19916;-63
2022/04/20 00:33:17;;;;;;;;;;;22.00;34.50;;;;;;5072991;28;19909;-63
2022/04/20 00:35:43;;;;;;;;;;;22.00;34.50;;;;;;5072116;28;20003;-63
2022/04/20 00:38:08;;;;;;;;;;;22.00;34.50;;;;;;5073430;28;19958;-63
2022/04/20 00:40:34;;;;;;;;;;;22.00;34.60;;;;;;5065366;28;19920;-63
2022/04/20 00:42:59;;;;;;;;;;;22.00;34.60;;;;;;5066048;28;19912;-63
2022/04/20 00:45:24;;;;;;;;;;;22.00;34.60;;;;;;5070236;28;19925;-63
2022/04/20 00:47:50;;;;;;;;;;;22.00;34.70;;;;;;5072077;28;19920;-63
2022/04/20 00:50:15;;;;;;;;;;;22.00;34.70;;;;;;5073143;28;20368;-63
2022/04/20 00:52:41;;;;;;;;;;;21.90;34.70;;;;;;5068695;28;21778;-62
2022/04/20 00:55:06;;;;;;;;;;;21.90;34.70;;;;;;5066102;28;20354;-63
2022/04/20 00:57:32;;;;;;;;;;;22.00;34.80;;;;;;5068955;28;19919;-63
2022/04/20 00:59:59;;;;;;;;;;;22.00;34.70;;;;;;5066626;28;19934;-63
2022/04/20 01:02:24;;;;;;;;;;;22.00;34.80;;;;;;5072969;28;19916;-63
2022/04/20 01:04:50;;;;;;;;;;;21.90;34.80;;;;;;5072826;28;19912;-63
2022/04/20 01:07:16;;;;;;;;;;;21.90;34.80;;;;;;5068230;28;20356;-63
2022/04/20 01:09:41;;;;;;;;;;;21.90;34.80;;;;;;5068925;28;19913;-63
2022/04/20 01:12:07;;;;;;;;;;;21.80;34.90;;;;;;5065322;28;19913;-62
2022/04/20 01:14:33;;;;;;;;;;;21.80;34.90;;;;;;5067422;28;19928;-63
2022/04/20 01:16:58;;;;;;;;;;;21.70;34.90;;;;;;5069850;28;20360;-63
2022/04/20 01:19:33;;;;;;;;;;;21.80;34.90;;;;;;5072699;28;19923;-63
2022/04/20 01:22:00;;;;;;;;;;;21.80;34.90;;;;;;5063701;28;19920;-63
2022/04/20 01:24:25;;;;;;;;;;;21.70;34.90;;;;;;5068539;28;20399;-63
2022/04/20 01:26:50;;;;;;;;;;;21.70;35.50;;;;;;5068600;28;19913;-63
2022/04/20 01:29:16;;;;;;;;;;;21.70;35.00;;;;;;5070716;28;19919;-63
2022/04/20 01:31:42;;;;;;;;;;;21.70;34.90;;;;;;5071475;28;19915;-63
2022/04/20 01:34:07;;;;;;;;;;;21.70;35.00;;;;;;5071303;28;19913;-63
2022/04/20 01:36:32;;;;;;;;;;;21.70;35.00;;;;;;5072626;28;19908;-63
2022/04/20 01:38:58;;;;;;;;;;;21.70;34.90;;;;;;5072270;28;19908;-63
2022/04/20 01:41:23;;;;;;;;;;;21.80;34.90;;;;;;5070799;28;20395;-64
2022/04/20 01:43:49;;;;;;;;;;;21.90;35.70;;;;;;5071921;28;20388;-63
2022/04/20 01:46:15;;;;;;;;;;;22.00;34.80;;;;;;5071759;28;20388;-63
2022/04/20 01:48:41;;;;;;;;;;;22.10;34.70;;;;;;5072303;28;19908;-63
2022/04/20 01:53:50;;;;;;;;;;;22.10;34.40;;;;;;5072283;28;19916;-63
2022/04/20 01:56:16;;;;;;;;;;;22.20;34.50;;;;;;5072440;28;20360;-63
2022/04/20 01:58:41;;;;;;;;;;;22.20;34.40;;;;;;5071959;28;20288;-63
2022/04/20 02:02:34;;;;;;;;;;;22.20;34.30;;;;;;5072516;28;20329;-63
2022/04/20 02:03:52;;;;;;;;;;;22.20;34.30;;;;;;5072185;28;19961;-63
2022/04/20 02:06:18;;;;;;;;;;;22.20;34.30;;;;;;5072245;28;19916;-63
2022/04/20 02:08:43;;;;;;;;;;;22.20;34.30;;;;;;5061575;28;19917;-63
2022/04/20 02:11:09;;;;;;;;;;;22.20;34.30;;;;;;5051060;28;19913;-63
2022/04/20 02:13:34;;;;;;;;;;;22.20;34.30;;;;;;5056403;28;19916;-63
2022/04/20 02:15:59;;;;;;;;;;;22.10;34.30;;;;;;5072222;28;19916;-63
2022/04/20 02:18:25;;;;;;;;;;;22.10;34.40;;;;;;5071947;28;19909;-63
2022/04/20 02:20:50;;;;;;;;;;;22.10;34.40;;;;;;5072092;28;19912;-63
2022/04/20 02:23:16;;;;;;;;;;;22.00;34.50;;;;;;5070746;28;19959;-63
2022/04/20 02:25:42;;;;;;;;;;;22.00;34.50;;;;;;5064965;28;19932;-63
2022/04/20 02:28:07;;;;;;;;;;;22.00;34.70;;;;;;5065243;28;20403;-63
2022/04/20 02:30:32;;;;;;;;;;;21.90;34.70;;;;;;5066710;28;20384;-63
2022/04/20 02:32:58;;;;;;;;;;;21.80;34.80;;;;;;5069679;28;19920;-63
2022/04/20 02:35:23;;;;;;;;;;;21.90;34.90;;;;;;5069220;28;19912;-63
2022/04/20 02:37:49;;;;;;;;;;;21.80;34.90;;;;;;5069678;28;19924;-63
2022/04/20 02:40:14;;;;;;;;;;;21.80;34.90;;;;;;5071816;28;20410;-63
2022/04/20 02:42:40;;;;;;;;;;;21.70;34.90;;;;;;5071788;28;19908;-63
2022/04/20 02:45:05;;;;;;;;;;;21.70;34.90;;;;;;5071326;28;19928;-63
2022/04/20 02:47:31;;;;;;;;;;;21.70;34.90;;;;;;5070408;28;19916;-63
2022/04/20 02:49:56;;;;;;;;;;;21.70;35.10;;;;;;5071675;28;19909;-63
2022/04/20 02:52:22;;;;;;;;;;;21.70;35.10;;;;;;5071957;28;19909;-63
2022/04/20 02:54:47;;;;;;;;;;;21.70;35.10;;;;;;5071836;28;20309;-63
2022/04/20 02:57:13;;;;;;;;;;;21.70;35.20;;;;;;5073566;28;19962;-63
2022/04/20 02:59:38;;;;;;;;;;;21.70;35.20;;;;;;5073785;28;19934;-63
2022/04/20 03:02:04;;;;;;;;;;;21.60;35.10;;;;;;5075398;28;19927;-63
2022/04/20 03:04:29;;;;;;;;;;;21.70;35.20;;;;;;5074984;28;19912;-63
2022/04/20 03:06:55;;;;;;;;;;;21.70;35.20;;;;;;5075353;28;20001;-63
2022/04/20 03:09:20;;;;;;;;;;;21.70;35.20;;;;;;5075020;28;19908;-63
2022/04/20 03:11:46;;;;;;;;;;;21.60;35.20;;;;;;5075205;28;19954;-63
2022/04/20 03:14:11;;;;;;;;;;;21.60;35.20;;;;;;5082713;28;20012;-63
2022/04/20 03:16:37;;;;;;;;;;;21.60;35.30;;;;;;5077202;28;19916;-63
2022/04/20 03:19:02;;;;;;;;;;;21.50;35.20;;;;;;5095185;28;20360;-63
2022/04/20 03:21:28;;;;;;;;;;;21.60;35.40;;;;;;5089958;28;20259;-63
2022/04/20 03:23:54;;;;;;;;;;;21.50;35.30;;;;;;5073455;28;19931;-63
2022/04/20 03:26:19;;;;;;;;;;;21.50;35.40;;;;;;5074989;28;19966;-63
2022/04/20 03:28:44;;;;;;;;;;;21.50;35.40;;;;;;5074389;28;19965;-63
2022/04/20 03:31:10;;;;;;;;;;;21.50;35.30;;;;;;5074645;28;19962;-63
2022/04/20 03:33:35;;;;;;;;;;;21.50;35.40;;;;;;5074582;28;19909;-63
2022/04/20 03:36:01;;;;;;;;;;;21.60;35.50;;;;;;5091000;28;19912;-63
2022/04/20 03:38:27;;;;;;;;;;;21.50;35.50;;;;;;5087134;28;19914;-63
2022/04/20 03:40:52;;;;;;;;;;;21.50;35.40;;;;;;5073071;28;19912;-63
2022/04/20 03:43:18;;;;;;;;;;;21.50;35.40;;;;;;5073620;28;19917;-63
2022/04/20 03:45:44;;;;;;;;;;;21.50;35.40;;;;;;5075006;28;19986;-63
2022/04/20 03:48:09;;;;;;;;;;;21.50;35.40;;;;;;5075022;28;19982;-63
2022/04/20 03:50:35;;;;;;;;;;;21.50;35.40;;;;;;5074249;28;20005;-63
2022/04/20 03:53:00;;;;;;;;;;;21.50;35.40;;;;;;5074124;28;19908;-63
2022/04/20 03:55:26;;;;;;;;;;;21.50;35.50;;;;;;5074143;28;19908;-63
2022/04/20 03:57:51;;;;;;;;;;;21.50;35.60;;;;;;5074125;28;19916;-63
2022/04/20 04:00:20;;;;;;;;;;;21.50;35.60;;;;;;5084135;28;19991;-63
2022/04/20 04:02:46;;;;;;;;;;;21.50;35.60;;;;;;5094714;28;20364;-63
2022/04/20 04:05:11;;;;;;;;;;;21.50;35.50;;;;;;5085317;28;19916;-63
2022/04/20 04:07:37;;;;;;;;;;;21.50;35.60;;;;;;5073566;28;19931;-63
2022/04/20 04:10:03;;;;;;;;;;;21.50;35.60;;;;;;5061556;28;19937;-63
2022/04/20 04:12:29;;;;;;;;;;;21.40;35.50;;;;;;5061035;28;19998;-63
2022/04/20 04:14:54;;;;;;;;;;;21.50;35.70;;;;;;5073855;28;19983;-63
2022/04/20 04:17:20;;;;;;;;;;;21.50;35.60;;;;;;5074238;28;19908;-63
2022/04/20 04:19:46;;;;;;;;;;;21.40;35.60;;;;;;5073552;28;19931;-63
2022/04/20 04:22:11;;;;;;;;;;;21.40;35.60;;;;;;5073825;28;20257;-63
2022/04/20 04:24:37;;;;;;;;;;;21.40;35.60;;;;;;5072312;28;19919;-63
2022/04/20 04:27:03;;;;;;;;;;;21.40;35.60;;;;;;5079521;28;19912;-63
2022/04/20 04:29:29;;;;;;;;;;;21.50;35.60;;;;;;5072053;28;20008;-63
2022/04/20 04:31:55;;;;;;;;;;;21.50;35.60;;;;;;5073486;28;19955;-63
2022/04/20 04:34:20;;;;;;;;;;;21.50;35.60;;;;;;5073482;28;19908;-63
2022/04/20 04:36:46;;;;;;;;;;;21.40;35.60;;;;;;5073486;28;19948;-63
2022/04/20 04:39:11;;;;;;;;;;;21.40;35.50;;;;;;5073091;28;19957;-63
2022/04/20 04:41:37;;;;;;;;;;;21.50;35.60;;;;;;5073290;28;19913;-63
2022/04/20 04:44:02;;;;;;;;;;;21.40;35.50;;;;;;5089267;28;19927;-63
2022/04/20 04:49:12;;;;;;;;;;;21.40;35.70;;;;;;5073418;28;19967;-63
2022/04/20 04:51:37;;;;;;;;;;;21.40;35.70;;;;;;5070910;28;19912;-63
2022/04/20 04:54:03;;;;;;;;;;;21.40;35.60;;;;;;5072264;28;19955;-63
2022/04/20 04:56:28;;;;;;;;;;;21.40;35.50;;;;;;5071023;28;19916;-63
2022/04/20 04:58:53;;;;;;;;;;;21.40;35.50;;;;;;5068353;28;19920;-63
2022/04/20 05:01:19;;;;;;;;;;;21.40;35.50;;;;;;5070602;28;19916;-63
2022/04/20 05:03:44;;;;;;;;;;;21.40;35.60;;;;;;5071456;28;19924;-63
2022/04/20 05:06:10;;;;;;;;;;;21.40;35.60;;;;;;5068796;28;19908;-63
2022/04/20 05:08:35;;;;;;;;;;;21.40;35.50;;;;;;5069181;28;20360;-63
2022/04/20 05:11:01;;;;;;;;;;;21.40;35.50;;;;;;5069890;28;19909;-63
2022/04/20 05:13:26;;;;;;;;;;;21.40;35.60;;;;;;5067430;28;20088;-62
2022/04/20 05:15:52;;;;;;;;;;;21.40;35.50;;;;;;5072665;28;19912;-63
2022/04/20 05:18:17;;;;;;;;;;;21.40;35.50;;;;;;5066530;28;19916;-63
2022/04/20 05:20:44;;;;;;;;;;;21.40;35.40;;;;;;5060825;28;19916;-63
2022/04/20 05:23:09;;;;;;;;;;;21.40;35.50;;;;;;5075402;28;19920;-63
2022/04/20 05:25:35;;;;;;;;;;;21.30;35.50;;;;;;5069236;28;19939;-63
2022/04/20 05:28:00;;;;;;;;;;;21.30;35.50;;;;;;5069144;28;19913;-63
2022/04/20 05:30:26;;;;;;;;;;;21.30;35.50;;;;;;5070816;28;19913;-63
2022/04/20 05:32:52;;;;;;;;;;;21.30;35.60;;;;;;5072256;28;20300;-63
2022/04/20 05:35:17;;;;;;;;;;;21.30;35.60;;;;;;5070836;28;19977;-63
2022/04/20 05:43:11;;;;;;;;;;;21.30;35.50;;;;;;5087321;28;20022;-63
2022/04/20 05:45:36;;;;;;;;;;;21.30;35.50;;;;;;5081858;28;20384;-63
2022/04/20 05:48:02;;;;;;;;;;;21.30;35.50;;;;;;5078186;28;20372;-63
2022/04/20 05:50:28;;;;;;;;;;;21.30;35.50;;;;;;5091707;28;19916;-63
2022/04/20 05:52:53;;;;;;;;;;;21.30;35.50;;;;;;5086809;28;19908;-63
2022/04/20 05:55:20;;;;;;;;;;;21.30;35.40;;;;;;5074209;28;20019;-63
2022/04/20 05:57:47;;;;;;;;;;;21.40;35.50;;;;;;5076275;28;19916;-63
2022/04/20 06:00:13;;;;;;;;;;;21.40;35.50;;;;;;5070364;28;19919;-63
2022/04/20 06:02:38;;;;;;;;;;;21.40;35.50;;;;;;5072010;28;19912;-63
2022/04/20 06:05:04;;;;;;;;;;;21.40;35.40;;;;;;5071790;28;19924;-63
2022/04/20 06:07:29;;;;;;;;;;;21.40;35.50;;;;;;5070731;28;19920;-63
2022/04/20 06:09:55;;;;;;;;;;;21.40;35.50;;;;;;5065606;28;19928;-63
2022/04/20 06:12:20;;;;;;;;;;;21.30;35.50;;;;;;5063974;28;19908;-63
2022/04/20 06:14:46;;;;;;;;;;;21.30;35.50;;;;;;5091471;28;19908;-63
2022/04/20 06:17:12;;;;;;;;;;;21.30;35.40;;;;;;5090648;28;19908;-63
2022/04/20 06:19:37;;;;;;;;;;;21.40;35.40;;;;;;5091704;28;19915;-63
2022/04/20 06:22:03;;;;;;;;;;;21.30;35.50;;;;;;5075595;28;19995;-63
2022/04/20 06:24:28;;;;;;;;;;;21.30;35.50;;;;;;5072432;28;19908;-63
2022/04/20 06:26:54;;;;;;;;;;;21.30;35.60;;;;;;5072162;28;19973;-63
2022/04/20 06:29:19;;;;;;;;;;;21.30;35.70;;;;;;5071195;28;20010;-63
2022/04/20 06:31:45;;;;;;;;;;;21.30;35.80;;;;;;5073130;28;19966;-63
2022/04/20 06:34:11;;;;;;;;;;;21.30;35.60;;;;;;5075344;28;19915;-63
2022/04/20 06:36:36;;;;;;;;;;;21.30;35.60;;;;;;5075728;28;19970;-63
2022/04/20 06:39:02;;;;;;;;;;;21.30;35.70;;;;;;5071973;28;20296;-63
2022/04/20 06:41:27;;;;;;;;;;;21.30;35.80;;;;;;5072321;28;20279;-63
2022/04/20 06:43:53;;;;;;;;;;;21.30;35.80;;;;;;5080905;28;19927;-64
2022/04/20 06:46:18;;;;;;;;;;;21.30;35.80;;;;;;5079681;28;20399;-64
2022/04/20 06:48:44;;;;;;;;;;;21.30;35.80;;;;;;5085731;28;19963;-63
2022/04/20 06:51:09;;;;;;;;;;;21.30;35.80;;;;;;5086799;28;19958;-63
2022/04/20 06:59:03;;;;;;;;;;;21.30;36.50;;;;;;5085923;28;19915;-59
2022/04/20 07:01:28;;;;;;;;;;;21.20;37.00;;;;;;5086020;28;20337;-61
2022/04/20 07:03:54;;;;;;;;;;;21.40;37.00;;;;;;5074459;28;20365;-59
2022/04/20 07:06:19;;;;;;;;;;;21.60;37.50;;;;;;5079246;28;19990;-60
2022/04/20 07:08:45;;;;;;;;;;;21.80;36.60;;;;;;5068709;28;20356;-62
2022/04/20 07:11:12;;;;;;;;;;;22.00;36.30;;;;;;5080185;28;20386;-62
2022/04/20 07:13:38;;;;;;;;;;;22.40;36.10;;;;;;5078340;28;20291;-63
2022/04/20 07:16:04;;;;;;;;;;;22.60;36.30;;;;;;5078153;28;19912;-63
2022/04/20 07:18:30;;;;;;;;;;;22.90;35.70;;;;;;5086763;28;19912;-63
2022/04/20 07:20:55;;;;;;;;;;;23.10;35.20;;;;;;5078139;28;19919;-61
2022/04/20 07:23:20;;;;;;;;;;;23.30;34.90;;;;;;5087652;28;19912;-61
2022/04/20 07:25:46;;;;;;;;;;;23.40;34.70;;;;;;5086492;28;19951;-61
2022/04/20 07:28:11;;;;;;;;;;;23.60;34.70;;;;;;5080601;28;19912;-61
2022/04/20 07:30:37;;;;;;;;;;;23.70;34.50;;;;;;5074064;28;19920;-61
2022/04/20 07:33:02;;;;;;;;;;;23.80;34.50;;;;;;5091786;28;19918;-62
2022/04/20 07:35:28;;;;;;;;;;;23.80;34.40;;;;;;5071331;28;20285;-61
2022/04/20 07:37:54;;;;;;;;;;;23.80;34.40;;;;;;5087335;28;20003;-62
2022/04/20 07:40:19;;;;;;;;;;;23.80;34.50;;;;;;5084835;28;20335;-61
2022/04/20 07:42:45;;;;;;;;;;;23.80;34.50;;;;;;5077215;28;19923;-63
2022/04/20 07:45:10;;;;;;;;;;;23.70;34.50;;;;;;5077511;28;19975;-62
2022/04/20 07:47:36;;;;;;;;;;;23.60;34.80;;;;;;5076356;28;19957;-62
2022/04/20 07:50:21;;;;;;;;;;;23.60;34.80;;;;;;5085592;28;20039;-62
2022/04/20 07:52:48;;;;;;;;;;;23.60;34.90;;;;;;5085862;28;19908;-63
2022/04/20 07:55:23;;;;;;;;;;;23.50;34.80;;;;;;5067366;28;19912;-62
2022/04/20 07:57:49;;;;;;;;;;;23.50;34.90;;;;;;5080792;28;19916;-61
2022/04/20 08:00:15;;;;;;;;;;;23.50;34.90;;;;;;5078581;28;19969;-61
2022/04/20 08:02:41;;;;;;;;;;;23.50;34.80;;;;;;5077518;28;19942;-62
2022/04/20 08:05:06;;;;;;;;;;;23.50;34.80;;;;;;5076835;28;20367;-62
2022/04/20 08:07:32;;;;;;;;;;;23.50;35.00;;;;;;5087809;28;19915;-62
2022/04/20 08:09:58;;;;;;;;;;;23.50;35.10;;;;;;5084749;28;19912;-62
2022/04/20 08:12:27;;;;;;;;;;;23.50;35.00;;;;;;5088640;28;20252;-63
2022/04/20 08:14:53;;;;;;;;;;;23.60;35.00;;;;;;5087823;28;19953;-62
2022/04/20 08:17:18;;;;;;;;;;;23.60;34.90;;;;;;5087050;28;20003;-61
2022/04/20 08:19:43;;;;;;;;;;;23.60;34.90;;;;;;5079723;28;19920;-62
2022/04/20 08:22:09;;;;;;;;;;;23.60;35.00;;;;;;5078977;28;19970;-62
2022/04/20 08:24:35;;;;;;;;;;;23.60;34.90;;;;;;5069860;28;20369;-62
2022/04/20 08:27:02;;;;;;;;;;;23.50;34.80;;;;;;5074637;28;19916;-62
2022/04/20 08:29:27;;;;;;;;;;;23.50;35.00;;;;;;5083193;28;20752;-62
2022/04/20 08:31:52;;;;;;;;;;;23.50;35.10;;;;;;5075779;28;20007;-62
2022/04/20 08:34:18;;;;;;;;;;;23.60;35.20;;;;;;5078887;28;19924;-62
2022/04/20 08:36:43;;;;;;;;;;;23.60;35.20;;;;;;5078638;28;19959;-62
2022/04/20 08:39:09;;;;;;;;;;;23.60;35.20;;;;;;5070111;28;19912;-61
2022/04/20 08:41:35;;;;;;;;;;;23.60;35.30;;;;;;5081878;28;19924;-61
2022/04/20 08:44:00;;;;;;;;;;;23.60;35.50;;;;;;5083177;28;19920;-61
2022/04/20 08:46:26;;;;;;;;;;;23.70;35.30;;;;;;5087712;28;19935;-61
2022/04/20 08:48:51;;;;;;;;;;;23.70;35.20;;;;;;5079184;28;19912;-61
2022/04/20 08:51:17;;;;;;;;;;;23.70;35.50;;;;;;5074405;28;20360;-61
2022/04/20 08:53:42;;;;;;;;;;;23.60;35.40;;;;;;5086805;28;19923;-61
2022/04/20 08:58:53;;;;;;;;;;;23.70;35.50;;;;;;5075879;28;19923;-62
2022/04/20 09:01:19;;;;;;;;;;;23.70;35.50;;;;;;5076539;28;19916;-61
2022/04/20 09:03:46;;;;;;;;;;;23.60;35.50;;;;;;5078875;28;19912;-61
2022/04/20 09:06:15;;;;;;;;;;;23.70;35.60;;;;;;5076404;28;20004;-61
2022/04/20 09:08:40;;;;;;;;;;;23.70;35.50;;;;;;5071384;28;20326;-61
2022/04/20 09:11:06;;;;;;;;;;;23.70;35.50;;;;;;5080682;28;19913;-62
2022/04/20 09:13:33;;;;;;;;;;;23.70;35.50;;;;;;5074625;28;19952;-62
2022/04/20 09:16:05;;;;;;;;;;;23.70;35.70;;;;;;5078277;28;19916;-62
2022/04/20 09:18:30;;;;;;;;;;;23.70;35.60;;;;;;5068609;28;19916;-61
2022/04/20 09:21:05;;;;;;;;;;;23.70;35.60;;;;;;5080344;28;19912;-61
2022/04/20 09:23:31;;;;;;;;;;;23.70;35.50;;;;;;5069000;28;19927;-61
2022/04/20 09:25:56;;;;;;;;;;;23.70;35.60;;;;;;5050251;28;19916;-61
2022/04/20 09:28:22;;;;;;;;;;;23.80;35.70;;;;;;5056689;28;19970;-61
2022/04/20 09:30:52;;;;;;;;;;;23.90;35.40;;;;;;5055011;28;20034;-61
2022/04/20 09:33:17;;;;;;;;;;;24.00;35.20;;;;;;5056396;28;19967;-61
2022/04/20 09:35:46;;;;;;;;;;;24.10;35.20;;;;;;5055782;28;19923;-61
2022/04/20 09:38:12;;;;;;;;;;;24.10;35.20;;;;;;5058589;28;19935;-61
2022/04/20 09:40:38;;;;;;;;;;;24.10;35.20;;;;;;5056101;28;20353;-61
2022/04/20 09:43:04;;;;;;;;;;;24.10;35.20;;;;;;5058847;28;20438;-61
2022/04/20 09:45:30;;;;;;;;;;;24.00;35.20;;;;;;5056109;28;19955;-61
2022/04/20 09:50:39;;;;;;;;;;;24.00;35.50;;;;;;5056346;28;19957;-61
2022/04/20 09:53:05;;;;;;;;;;;24.00;35.50;;;;;;5056309;28;20378;-61
2022/04/20 09:55:34;;;;;;;;;;;24.00;35.60;;;;;;5058566;28;20010;-61
2022/04/20 09:58:19;;;;;;;;;;;23.90;35.50;;;;;;5062816;28;19916;-61
2022/04/20 10:01:06;;;;;;;;;;;24.00;35.70;;;;;;5062977;28;19920;-61
2022/04/20 10:03:31;;;;;;;;;;;24.00;35.70;;;;;;5061207;28;20008;-61
2022/04/20 10:05:57;;;;;;;;;;;24.00;35.80;;;;;;5062332;28;20340;-61
2022/04/20 10:08:23;;;;;;;;;;;24.00;35.90;;;;;;5060746;28;19913;-62
2022/04/20 10:10:49;;;;;;;;;;;24.00;35.90;;;;;;5063790;28;20296;-61
2022/04/20 10:13:15;;;;;;;;;;;24.00;35.90;;;;;;5060747;28;19928;-61
2022/04/20 10:18:25;;;;;;;;;;;24.00;36.00;;;;;;5062486;28;19924;-61
2022/04/20 10:20:52;;;;;;;;;;;24.00;36.10;;;;;;5060775;28;20272;-61
2022/04/20 10:23:18;;;;;;;;;;;24.00;36.10;;;;;;5061924;28;19916;-62
2022/04/20 10:25:44;;;;;;;;;;;24.00;36.10;;;;;;5063815;28;19912;-61
2022/04/20 10:28:17;;;;;;;;;;;24.00;36.10;;;;;;5060502;28;20035;-61
2022/04/20 10:30:46;;;;;;;;;;;23.90;36.10;;;;;;5063713;28;19958;-61
2022/04/20 10:33:13;;;;;;;;;;;24.00;36.20;;;;;;5060022;28;19912;-61
2022/04/20 10:35:58;;;;;;;;;;;24.00;36.20;;;;;;5065604;28;20376;-61
2022/04/20 10:38:23;;;;;;;;;;;24.00;36.20;;;;;;5058048;28;19927;-61
2022/04/20 10:40:56;;;;;;;;;;;24.00;36.30;;;;;;5062302;28;19954;-61
2022/04/20 10:43:23;;;;;;;;;;;24.00;36.20;;;;;;5061388;28;19928;-61
2022/04/20 10:46:02;;;;;;;;;;;24.00;36.20;;;;;;5063411;28;19912;-61
2022/04/20 10:48:47;;;;;;;;;;;24.00;36.20;;;;;;5063230;28;19919;-61
2022/04/20 10:51:14;;;;;;;;;;;24.00;36.20;;;;;;5062709;28;19919;-61
2022/04/20 10:53:41;;;;;;;;;;;24.00;36.30;;;;;;5061705;28;20787;-61
2022/04/20 10:56:07;;;;;;;;;;;24.00;36.30;;;;;;5061026;28;19943;-61
2022/04/20 10:58:32;;;;;;;;;;;24.00;36.30;;;;;;5062154;28;19916;-61
2022/04/20 11:01:10;;;;;;;;;;;24.00;36.40;;;;;;5059855;28;19920;-61
2022/04/20 11:03:54;;;;;;;;;;;24.00;36.50;;;;;;5065073;28;19970;-61
2022/04/20 11:06:20;;;;;;;;;;;24.00;36.50;;;;;;5059484;28;19966;-61
2022/04/20 11:08:45;;;;;;;;;;;24.00;36.50;;;;;;5058871;28;20295;-61
2022/04/20 11:19:49;;;;;;;;;;;24.10;36.60;;;;;;5066261;28;19966;-61
2022/04/20 11:22:14;;;;;;;;;;;24.10;36.60;;;;;;5058765;28;19920;-61
2022/04/20 11:24:40;;;;;;;;;;;24.10;36.60;;;;;;5056795;28;19920;-61
2022/04/20 11:27:06;;;;;;;;;;;24.10;36.50;;;;;;5060598;28;19917;-61
2022/04/20 11:29:32;;;;;;;;;;;24.20;36.50;;;;;;5060489;28;19913;-61
2022/04/20 11:32:02;;;;;;;;;;;24.20;36.60;;;;;;5060842;28;19955;-61
2022/04/20 11:34:30;;;;;;;;;;;24.20;36.50;;;;;;5063364;28;19912;-61
2022/04/20 11:36:57;;;;;;;;;;;24.20;36.50;;;;;;5060170;28;19923;-62
2022/04/20 11:39:28;;;;;;;;;;;24.20;37.20;;;;;;5059999;28;19932;-61
2022/04/20 11:41:54;;;;;;;;;;;24.30;36.60;;;;;;5059553;28;19935;-62
2022/04/20 11:44:29;;;;;;;;;;;24.30;36.70;;;;;;5059546;28;20277;-62
2022/04/20 11:46:58;;;;;;;;;;;24.30;36.70;;;;;;5062874;28;20392;-62
2022/04/20 11:49:38;;;;;;;;;;;24.30;36.70;;;;;;5063287;28;20016;-62
2022/04/20 11:52:06;;;;;;;;;;;24.30;36.70;;;;;;5061740;28;19912;-62
2022/04/20 11:54:32;;;;;;;;;;;24.30;36.70;;;;;;5065372;28;19913;-62
2022/04/20 11:56:58;;;;;;;;;;;24.30;36.80;;;;;;5063242;28;19913;-62
2022/04/20 11:59:27;;;;;;;;;;;24.30;37.00;;;;;;5063467;28;19931;-62
2022/04/20 12:01:53;;;;;;;;;;;24.30;37.00;;;;;;5060824;28;19963;-62
2022/04/20 12:04:19;;;;;;;;;;;24.30;37.00;;;;;;5062455;28;19967;-62
2022/04/20 12:06:49;;;;;;;;;;;24.30;37.10;;;;;;5062708;28;19919;-61
2022/04/20 12:09:15;;;;;;;;;;;24.20;37.10;;;;;;5058345;28;20324;-61
2022/04/20 12:11:41;;;;;;;;;;;24.30;37.40;;;;;;5064191;28;20023;-61
2022/04/20 12:14:06;;;;;;;;;;;24.30;37.40;;;;;;5063489;28;19930;-62
2022/04/20 12:16:35;;;;;;;;;;;24.30;37.60;;;;;;5064666;28;19913;-61
2022/04/20 12:19:00;;;;;;;;;;;24.20;37.60;;;;;;5062676;28;19960;-61
2022/04/20 12:21:35;;;;;;;;;;;24.30;37.70;;;;;;5064664;28;19959;-61
2022/04/20 12:24:01;;;;;;;;;;;24.30;37.70;;;;;;5061728;28;20105;-61
2022/04/20 12:26:27;;;;;;;;;;;24.30;37.70;;;;;;5062637;28;20359;-61
2022/04/20 12:28:57;;;;;;;;;;;24.30;37.70;;;;;;5058326;28;20070;-61
2022/04/20 12:31:22;;;;;;;;;;;24.30;37.70;;;;;;5062319;28;20390;-61
2022/04/20 12:33:58;;;;;;;;;;;24.40;37.70;;;;;;5059487;28;19959;-61
2022/04/20 12:36:23;;;;;;;;;;;24.40;37.60;;;;;;5064233;28;19956;-62
2022/04/20 12:38:50;;;;;;;;;;;24.40;37.60;;;;;;5060486;28;19979;-61
2022/04/20 12:41:38;;;;;;;;;;;24.50;37.60;;;;;;5065464;28;20015;-61
2022/04/20 12:44:22;;;;;;;;;;;24.50;37.60;;;;;;5062231;28;19928;-61
2022/04/20 12:46:47;;;;;;;;;;;24.50;37.50;;;;;;5064200;28;19921;-61
2022/04/20 12:49:25;;;;;;;;;;;24.50;37.40;;;;;;5065616;28;19999;-62
2022/04/20 12:51:51;;;;;;;;;;;24.50;37.40;;;;;;5064433;28;20038;-61
2022/04/20 12:54:24;;;;;;;;;;;24.50;37.40;;;;;;5063588;28;23306;-61
2022/04/20 13:02:18;;;;;;;;;;;24.60;37.30;;;;;;5061905;28;20426;-61
2022/04/20 13:04:47;;;;;;;;;;;24.70;37.40;;;;;;5062992;28;19921;-61
2022/04/20 13:07:12;;;;;;;;;;;24.70;37.50;;;;;;5061706;28;19919;-61
2022/04/20 13:09:38;;;;;;;;;;;24.70;37.50;;;;;;5062529;28;20295;-61
2022/04/20 13:12:04;;;;;;;;;;;24.60;37.40;;;;;;5063059;28;19994;-61
2022/04/20 13:14:31;;;;;;;;;;;24.70;37.40;;;;;;5061666;28;19916;-66
2022/04/20 13:16:56;;;;;;;;;;;24.60;37.40;;;;;;5063118;28;21931;-61
2022/04/20 13:19:22;;;;;;;;;;;24.70;37.50;;;;;;5062778;28;19912;-61
2022/04/20 13:21:47;;;;;;;;;;;24.70;37.50;;;;;;5063317;28;19925;-62
2022/04/20 13:24:13;;;;;;;;;;;24.70;37.50;;;;;;5062299;28;19962;-62
2022/04/20 13:29:23;;;;;;;;;;;24.70;37.40;;;;;;5061402;28;19923;-61
2022/04/20 13:31:48;;;;;;;;;;;24.70;37.50;;;;;;5063851;28;19999;-61
2022/04/20 13:34:14;;;;;;;;;;;24.70;37.50;;;;;;5060242;28;19962;-62
2022/04/20 13:36:40;;;;;;;;;;;24.70;38.10;;;;;;5063003;28;19921;-61
2022/04/20 13:39:06;;;;;;;;;;;24.70;37.40;;;;;;5061100;28;19917;-61
2022/04/20 13:41:31;;;;;;;;;;;24.70;37.50;;;;;;5061520;28;20262;-62
2022/04/20 13:43:57;;;;;;;;;;;24.70;37.60;;;;;;5062755;28;19920;-61
2022/04/20 13:46:23;;;;;;;;;;;24.70;37.60;;;;;;5062759;28;19942;-62
2022/04/20 13:48:48;;;;;;;;;;;24.70;37.60;;;;;;5063389;28;19912;-62
2022/04/20 13:51:14;;;;;;;;;;;24.70;37.70;;;;;;5060680;28;20416;-61
2022/04/20 13:53:39;;;;;;;;;;;24.70;37.50;;;;;;5064411;28;19922;-61
2022/04/20 13:56:05;;;;;;;;;;;24.70;37.50;;;;;;5060522;28;20359;-61
2022/04/20 13:58:31;;;;;;;;;;;24.70;37.60;;;;;;5061685;28;20364;-62
2022/04/20 14:00:56;;;;;;;;;;;24.70;37.60;;;;;;5080287;28;19920;-61
2022/04/20 14:03:22;;;;;;;;;;;24.70;37.50;;;;;;5073055;28;19908;-61
2022/04/20 14:05:48;;;;;;;;;;;24.70;37.50;;;;;;5085505;28;19962;-61
2022/04/20 14:08:13;;;;;;;;;;;24.70;37.50;;;;;;5077069;28;20001;-61
2022/04/20 14:10:39;;;;;;;;;;;24.80;37.50;;;;;;5074637;28;19913;-61
2022/04/20 14:13:04;;;;;;;;;;;24.80;37.60;;;;;;5075723;28;19912;-62
2022/04/20 14:15:30;;;;;;;;;;;24.80;37.40;;;;;;5074736;28;20016;-61
2022/04/20 14:17:56;;;;;;;;;;;24.80;37.60;;;;;;5081229;28;19912;-61
2022/04/20 14:20:21;;;;;;;;;;;24.80;37.50;;;;;;5073699;28;20365;-61
2022/04/20 14:22:47;;;;;;;;;;;24.80;37.60;;;;;;5074405;28;19958;-61
2022/04/20 14:33:26;;;;;;;;;;;24.80;37.50;;;;;;5070903;28;19940;-61
2022/04/20 14:35:51;;;;;;;;;;;24.80;37.40;;;;;;5071643;28;19920;-61
2022/04/20 14:38:17;;;;;;;;;;;24.80;37.40;;;;;;5073393;28;19916;-61
2022/04/20 14:40:42;;;;;;;;;;;24.90;37.60;;;;;;5071462;28;19912;-61
2022/04/20 14:43:08;;;;;;;;;;;24.90;37.60;;;;;;5073215;28;19965;-61
2022/04/20 14:45:33;;;;;;;;;;;24.90;37.60;;;;;;5083109;28;19912;-63
2022/04/20 14:48:01;;;;;;;;;;;24.90;37.70;;;;;;5075268;28;20369;-62
2022/04/20 14:50:26;;;;;;;;;;;24.90;37.70;;;;;;5079312;28;19959;-64
2022/04/20 14:52:52;;;;;;;;;;;24.90;37.60;;;;;;5081178;28;19970;-63
2022/04/20 14:55:21;;;;;;;;;;;24.90;37.50;;;;;;5076005;28;19908;-61
2022/04/20 14:57:46;;;;;;;;;;;24.90;37.60;;;;;;5077283;28;20606;-62
2022/04/20 15:00:12;;;;;;;;;;;24.90;37.50;;;;;;5068954;28;19913;-62
2022/04/20 15:02:38;;;;;;;;;;;24.90;37.60;;;;;;5085602;28;19916;-62